createdAt,value
2023-09-27T00:00:47.253Z,20.50
2023-09-27T00:03:13.860Z,20.50
2023-09-27T00:05:40.590Z,18.50
2023-09-27T00:08:07.725Z,20.30
2023-09-27T00:10:34.354Z,19.80
2023-09-27T00:13:00.916Z,19.90
2023-09-27T00:15:27.584Z,17.40
2023-09-27T00:17:54.827Z,17.60
2023-09-27T00:20:22.286Z,18.90
2023-09-27T00:22:49.088Z,19.50
2023-09-27T00:25:15.938Z,20.00
2023-09-27T00:27:42.597Z,19.90
2023-09-27T00:30:09.910Z,16.80
2023-09-27T00:32:37.068Z,20.30
2023-09-27T00:35:06.753Z,19.00
2023-09-27T00:37:34.690Z,20.80
2023-09-27T00:40:01.271Z,19.20
2023-09-27T00:42:28.200Z,19.20
2023-09-27T00:44:54.897Z,20.40
2023-09-27T00:47:21.617Z,20.90
2023-09-27T00:49:48.427Z,19.70
2023-09-27T00:52:16.820Z,20.80
2023-09-27T00:54:43.385Z,19.50
2023-09-27T00:57:09.982Z,17.50
2023-09-27T00:59:36.764Z,17.70
2023-09-27T01:02:04.170Z,20.40
2023-09-27T01:04:31.517Z,20.70
2023-09-27T01:06:58.118Z,18.40
2023-09-27T01:09:24.853Z,20.00
2023-09-27T01:11:51.554Z,18.40
2023-09-27T01:14:18.302Z,18.90
2023-09-27T01:16:45.002Z,20.00
2023-09-27T01:19:13.116Z,18.40
2023-09-27T01:21:39.668Z,19.20
2023-09-27T01:24:07.077Z,21.10
2023-09-27T01:26:34.545Z,20.30
2023-09-27T01:29:01.135Z,19.80
2023-09-27T01:31:27.865Z,20.10
2023-09-27T01:33:54.502Z,21.10
2023-09-27T01:36:22.673Z,22.00
2023-09-27T01:38:49.315Z,23.60
2023-09-27T01:41:17.468Z,21.00
2023-09-27T01:43:44.345Z,19.20
2023-09-27T01:46:10.929Z,19.20
2023-09-27T01:48:37.822Z,20.20
2023-09-27T01:51:04.458Z,21.80
2023-09-27T01:53:31.136Z,18.60
2023-09-27T01:55:57.911Z,20.00
2023-09-27T01:58:24.535Z,20.90
2023-09-27T02:00:51.338Z,21.30
2023-09-27T02:03:18.009Z,19.40
2023-09-27T02:05:44.989Z,22.20
2023-09-27T02:08:12.251Z,22.20
2023-09-27T02:10:39.157Z,20.50
2023-09-27T02:13:05.875Z,21.40
2023-09-27T02:15:32.408Z,22.00
2023-09-27T02:17:59.134Z,19.20
2023-09-27T02:20:26.029Z,18.60
2023-09-27T02:22:54.503Z,17.70
2023-09-27T02:27:47.845Z,19.80
2023-09-27T02:30:15.087Z,17.30
2023-09-27T02:32:43.070Z,20.20
2023-09-27T02:35:10.008Z,21.90
2023-09-27T02:37:37.434Z,23.90
2023-09-27T02:40:14.490Z,24.00
2023-09-27T02:42:45.191Z,22.20
2023-09-27T02:45:12.164Z,23.30
2023-09-27T02:47:39.491Z,22.60
2023-09-27T02:50:10.407Z,21.60
2023-09-27T02:52:38.795Z,21.30
2023-09-27T02:55:09.476Z,23.70
2023-09-27T02:57:37.963Z,22.90
2023-09-27T03:00:06.727Z,17.70
2023-09-27T03:02:34.039Z,20.70
2023-09-27T03:05:00.984Z,23.60
2023-09-27T03:07:27.795Z,21.90
2023-09-27T03:09:54.480Z,23.30
2023-09-27T03:12:21.053Z,22.50
2023-09-27T03:14:47.752Z,21.10
2023-09-27T03:17:14.480Z,23.10
2023-09-27T03:19:41.152Z,22.60
2023-09-27T03:22:07.921Z,19.90
2023-09-27T03:24:34.756Z,20.40
2023-09-27T03:27:03.476Z,21.10
2023-09-27T03:29:31.747Z,18.70
2023-09-27T03:34:26.284Z,16.60
2023-09-27T03:36:56.577Z,19.00
2023-09-27T03:39:23.141Z,17.80
2023-09-27T03:41:52.925Z,19.90
2023-09-27T03:44:19.541Z,18.60
2023-09-27T03:46:47.375Z,19.10
2023-09-27T03:49:14.261Z,22.30
2023-09-27T03:51:40.991Z,19.30
2023-09-27T03:54:07.729Z,20.10
2023-09-27T03:56:34.381Z,18.00
2023-09-27T03:59:01.062Z,20.60
2023-09-27T04:01:27.859Z,23.10
2023-09-27T04:03:54.530Z,20.80
2023-09-27T04:06:21.349Z,21.00
2023-09-27T04:08:48.107Z,20.20
2023-09-27T04:11:17.242Z,19.40
2023-09-27T04:13:43.904Z,20.90
2023-09-27T04:16:10.506Z,18.10
2023-09-27T04:18:37.165Z,18.50
2023-09-27T04:21:09.840Z,16.80
2023-09-27T04:23:36.741Z,18.70
2023-09-27T04:26:06.422Z,18.50
2023-09-27T04:28:33.600Z,20.50
2023-09-27T04:31:01.002Z,17.90
2023-09-27T04:33:27.688Z,18.40
2023-09-27T04:35:54.245Z,20.70
2023-09-27T04:38:21.753Z,17.90
2023-09-27T04:40:48.482Z,18.80
2023-09-27T04:43:15.035Z,19.50
2023-09-27T04:45:42.269Z,19.20
2023-09-27T04:48:08.992Z,22.00
2023-09-27T04:50:35.695Z,20.00
2023-09-27T04:53:02.567Z,18.60
2023-09-27T04:55:29.512Z,17.10
2023-09-27T04:57:56.231Z,20.40
2023-09-27T05:00:23.538Z,17.00
2023-09-27T05:02:52.197Z,18.20
2023-09-27T05:05:19.009Z,16.60
2023-09-27T05:07:46.037Z,16.40
2023-09-27T05:10:13.044Z,17.10
2023-09-27T05:12:40.150Z,16.80
2023-09-27T05:15:09.907Z,15.90
2023-09-27T05:17:36.562Z,15.50
2023-09-27T05:20:11.187Z,16.30
2023-09-27T05:22:38.132Z,15.50
2023-09-27T05:25:06.294Z,18.10
2023-09-27T05:27:34.637Z,16.10
2023-09-27T05:30:01.568Z,15.50
2023-09-27T05:32:28.372Z,18.10
2023-09-27T05:34:55.429Z,21.30
2023-09-27T05:37:22.078Z,17.30
2023-09-27T05:39:48.717Z,27.60
2023-09-27T05:42:15.504Z,26.90
2023-09-27T05:44:42.101Z,22.50
2023-09-27T05:47:08.843Z,21.30
2023-09-27T05:49:35.643Z,18.00
2023-09-27T05:52:03.364Z,19.30
2023-09-27T05:54:30.523Z,19.00
2023-09-27T05:56:57.302Z,17.50
2023-09-27T05:59:26.610Z,16.60
2023-09-27T06:01:55.280Z,16.70
2023-09-27T06:04:22.653Z,16.40
2023-09-27T06:06:50.061Z,18.70
2023-09-27T06:09:17.059Z,17.40
2023-09-27T06:11:44.387Z,18.20
2023-09-27T06:14:11.259Z,17.20
2023-09-27T06:16:39.204Z,15.50
2023-09-27T06:19:06.150Z,16.60
2023-09-27T06:21:33.474Z,16.40
2023-09-27T06:24:00.351Z,17.60
2023-09-27T06:26:26.974Z,16.40
2023-09-27T06:28:54.301Z,16.90
2023-09-27T06:31:22.424Z,15.70
2023-09-27T06:33:50.267Z,16.50
2023-09-27T06:36:16.941Z,21.10
2023-09-27T06:38:44.905Z,19.70
2023-09-27T06:41:12.087Z,20.10
2023-09-27T06:43:39.370Z,20.60
2023-09-27T06:46:10.835Z,22.10
2023-09-27T06:48:38.357Z,24.60
2023-09-27T06:51:06.169Z,24.30
2023-09-27T06:53:33.908Z,26.20
2023-09-27T06:56:00.798Z,24.40
2023-09-27T06:58:28.163Z,20.00
2023-09-27T07:00:55.475Z,17.00
2023-09-27T07:03:25.497Z,16.00
2023-09-27T07:05:52.514Z,16.40
2023-09-27T07:08:19.328Z,16.30
2023-09-27T07:10:46.085Z,16.50
2023-09-27T07:13:12.666Z,14.10
2023-09-27T07:15:39.350Z,14.20
2023-09-27T07:18:06.740Z,14.20
2023-09-27T07:20:34.932Z,14.80
2023-09-27T07:23:04.668Z,14.70
2023-09-27T07:25:34.973Z,14.70
2023-09-27T07:28:03.858Z,13.80
2023-09-27T07:30:30.688Z,13.10
2023-09-27T07:32:57.599Z,13.40
2023-09-27T07:35:27.815Z,12.70
2023-09-27T07:37:54.920Z,12.60
2023-09-27T07:40:22.063Z,10.70
2023-09-27T07:42:48.848Z,11.20
2023-09-27T07:45:22.026Z,11.60
2023-09-27T07:47:52.948Z,10.80
2023-09-27T07:50:20.538Z,10.80
2023-09-27T07:52:48.181Z,12.00
2023-09-27T07:55:15.244Z,11.00
2023-09-27T07:57:44.463Z,12.40
2023-09-27T08:00:16.050Z,11.30
2023-09-27T08:02:43.826Z,11.30
2023-09-27T08:05:10.723Z,11.50
2023-09-27T08:07:38.400Z,12.50
2023-09-27T08:10:19.111Z,13.10
2023-09-27T08:12:48.194Z,12.10
2023-09-27T08:15:15.164Z,12.20
2023-09-27T08:17:42.694Z,11.50
2023-09-27T08:20:12.234Z,13.40
2023-09-27T08:22:40.099Z,12.60
2023-09-27T08:25:14.831Z,12.60
2023-09-27T08:27:42.665Z,13.10
2023-09-27T08:30:10.230Z,11.10
2023-09-27T08:32:39.113Z,11.70
2023-09-27T08:35:07.405Z,11.60
2023-09-27T08:37:34.561Z,11.60
2023-09-27T08:40:01.668Z,10.50
2023-09-27T08:42:28.891Z,10.20
2023-09-27T08:44:55.997Z,8.20
2023-09-27T08:47:22.803Z,9.70
2023-09-27T08:49:50.073Z,8.80
2023-09-27T08:52:17.369Z,10.60
2023-09-27T08:54:44.035Z,10.50
2023-09-27T08:57:11.489Z,9.70
2023-09-27T08:59:39.235Z,11.60
2023-09-27T09:02:06.366Z,9.60
2023-09-27T09:04:37.072Z,10.50
2023-09-27T09:07:03.907Z,10.00
2023-09-27T09:09:31.120Z,8.50
2023-09-27T09:12:00.647Z,9.70
2023-09-27T09:14:43.654Z,9.20
2023-09-27T09:17:18.405Z,7.50
2023-09-27T09:20:03.320Z,9.60
2023-09-27T09:22:33.937Z,8.00
2023-09-27T09:25:02.870Z,8.10
2023-09-27T09:27:31.499Z,7.20
2023-09-27T09:29:58.276Z,7.80
2023-09-27T09:32:28.132Z,7.10
2023-09-27T09:34:56.397Z,7.00
2023-09-27T09:37:24.594Z,7.70
2023-09-27T09:39:52.286Z,7.80
2023-09-27T09:42:37.121Z,6.70
2023-09-27T09:45:07.604Z,6.10
2023-09-27T09:47:37.496Z,6.70
2023-09-27T09:50:08.709Z,6.40
2023-09-27T09:52:38.643Z,8.50
2023-09-27T09:55:20.097Z,6.20
2023-09-27T09:58:15.510Z,6.20
2023-09-27T10:00:42.866Z,6.10
2023-09-27T10:03:10.351Z,6.60
2023-09-27T10:05:38.598Z,7.70
2023-09-27T10:08:08.080Z,6.30
2023-09-27T10:10:35.563Z,6.80
2023-09-27T10:13:04.830Z,6.90
2023-09-27T10:15:34.708Z,6.70
2023-09-27T10:18:23.025Z,6.90
2023-09-27T10:21:02.301Z,6.40
2023-09-27T10:23:36.396Z,7.00
2023-09-27T10:26:27.721Z,6.80
2023-09-27T10:29:17.018Z,7.30
2023-09-27T10:31:59.326Z,5.90
2023-09-27T10:34:26.104Z,5.70
2023-09-27T10:37:04.658Z,6.40
2023-09-27T10:39:40.000Z,7.00
2023-09-27T10:42:06.884Z,6.20
2023-09-27T10:44:34.458Z,6.10
2023-09-27T10:49:42.043Z,6.40
2023-09-27T10:52:16.203Z,5.50
2023-09-27T10:54:43.113Z,6.00
2023-09-27T10:57:09.869Z,5.80
2023-09-27T10:59:36.629Z,6.00
2023-09-27T11:02:04.235Z,5.60
2023-09-27T11:04:33.105Z,5.20
2023-09-27T11:07:00.265Z,5.30
2023-09-27T11:09:27.645Z,7.30
2023-09-27T11:11:54.943Z,5.90
2023-09-27T11:14:43.820Z,5.90
2023-09-27T11:17:22.861Z,6.80
2023-09-27T11:19:50.156Z,6.10
2023-09-27T11:22:26.576Z,5.80
2023-09-27T11:24:53.369Z,6.10
2023-09-27T11:27:20.460Z,5.50
2023-09-27T11:29:54.075Z,5.90
2023-09-27T11:32:21.436Z,5.60
2023-09-27T11:34:57.504Z,8.60
2023-09-27T11:37:24.966Z,5.50
2023-09-27T11:39:53.008Z,5.70
2023-09-27T11:42:26.434Z,5.50
2023-09-27T11:45:09.600Z,5.70
2023-09-27T11:47:46.819Z,6.00
2023-09-27T11:50:18.030Z,5.30
2023-09-27T11:52:47.196Z,5.70
2023-09-27T11:55:14.397Z,6.20
2023-09-27T11:57:41.385Z,6.00
2023-09-27T12:00:16.031Z,5.60
2023-09-27T12:02:52.077Z,5.80
2023-09-27T12:05:23.852Z,6.00
2023-09-27T12:07:51.118Z,6.70
2023-09-27T12:10:17.953Z,6.40
2023-09-27T12:12:44.703Z,5.30
2023-09-27T12:15:11.431Z,5.90
2023-09-27T12:17:38.341Z,5.70
2023-09-27T12:20:09.189Z,5.60
2023-09-27T12:22:41.137Z,6.50
2023-09-27T12:25:08.461Z,5.70
2023-09-27T12:27:35.296Z,5.90
2023-09-27T12:30:02.134Z,6.00
2023-09-27T12:32:29.018Z,5.50
2023-09-27T12:34:55.795Z,5.80
2023-09-27T12:37:23.227Z,6.60
2023-09-27T12:39:50.042Z,7.50
2023-09-27T12:42:16.732Z,6.20
2023-09-27T12:44:43.444Z,5.30
2023-09-27T12:47:10.636Z,5.90
2023-09-27T12:49:37.419Z,6.50
2023-09-27T12:52:04.330Z,21.70
2023-09-27T12:54:31.181Z,15.40
2023-09-27T12:56:59.697Z,8.30
2023-09-27T12:59:27.113Z,5.60
2023-09-27T13:01:54.994Z,6.60
2023-09-27T13:04:22.187Z,5.80
2023-09-27T13:06:49.037Z,5.80
2023-09-27T13:09:17.824Z,6.70
2023-09-27T13:11:44.608Z,6.20
2023-09-27T13:14:11.410Z,5.90
2023-09-27T13:16:38.375Z,6.70
2023-09-27T13:19:05.358Z,5.60
2023-09-27T13:21:32.123Z,6.30
2023-09-27T13:23:58.840Z,6.10
2023-09-27T13:26:26.551Z,6.40
2023-09-27T13:28:53.570Z,6.30
2023-09-27T13:31:20.434Z,5.70
2023-09-27T13:33:55.098Z,6.90
2023-09-27T13:36:35.703Z,5.70
2023-09-27T13:39:06.244Z,5.70
2023-09-27T13:41:42.364Z,6.10
2023-09-27T13:44:09.136Z,7.00
2023-09-27T13:46:36.006Z,5.90
2023-09-27T13:49:03.683Z,5.70
2023-09-27T13:51:35.300Z,6.00
2023-09-27T13:54:12.706Z,6.80
2023-09-27T13:56:39.448Z,5.90
2023-09-27T13:59:06.704Z,4.70
2023-09-27T14:01:33.699Z,5.60
2023-09-27T14:04:01.549Z,5.20
2023-09-27T14:06:28.502Z,5.30
2023-09-27T14:08:55.788Z,5.90
2023-09-27T14:11:23.109Z,6.10
2023-09-27T14:13:49.887Z,6.20
2023-09-27T14:16:19.665Z,6.30
2023-09-27T14:18:46.729Z,6.10
2023-09-27T14:21:13.964Z,5.60
2023-09-27T14:23:42.471Z,6.40
2023-09-27T14:26:09.711Z,5.80
2023-09-27T14:28:36.564Z,5.40
2023-09-27T14:31:03.275Z,7.00
2023-09-27T14:33:30.106Z,7.20
2023-09-27T14:35:57.004Z,7.20
2023-09-27T14:38:23.577Z,5.90
2023-09-27T14:40:50.280Z,6.50
2023-09-27T14:43:16.939Z,5.60
2023-09-27T14:45:43.544Z,6.60
2023-09-27T14:48:10.594Z,5.40
2023-09-27T14:50:37.526Z,5.90
2023-09-27T14:53:04.300Z,6.30
2023-09-27T14:55:31.016Z,6.70
2023-09-27T14:57:57.816Z,6.50
2023-09-27T15:00:24.783Z,6.80
2023-09-27T15:02:54.619Z,6.70
2023-09-27T15:05:21.493Z,7.60
2023-09-27T15:07:48.734Z,9.30
2023-09-27T15:10:15.734Z,9.10
2023-09-27T15:12:42.634Z,9.50
2023-09-27T15:15:11.726Z,9.20
2023-09-27T15:17:42.480Z,16.20
2023-09-27T15:20:10.089Z,16.10
2023-09-27T15:22:39.014Z,23.00
2023-09-27T15:25:07.183Z,20.00
2023-09-27T15:30:00.665Z,11.60
2023-09-27T15:32:28.946Z,10.60
2023-09-27T15:34:55.855Z,47.70
2023-09-27T15:37:22.568Z,30.70
2023-09-27T15:39:49.298Z,49.40
2023-09-27T15:42:16.004Z,25.30
2023-09-27T15:44:42.686Z,75.30
2023-09-27T15:47:12.515Z,23.20
2023-09-27T15:49:39.620Z,15.60
2023-09-27T15:52:06.358Z,12.30
2023-09-27T15:54:33.629Z,14.20
2023-09-27T15:57:00.230Z,21.60
2023-09-27T15:59:26.791Z,17.90
2023-09-27T16:01:53.617Z,20.00
2023-09-27T16:04:20.405Z,24.30
2023-09-27T16:06:47.340Z,32.10
2023-09-27T16:09:15.852Z,34.10
2023-09-27T16:11:44.131Z,27.30
2023-09-27T16:14:12.254Z,30.40
2023-09-27T16:16:39.142Z,26.50
2023-09-27T16:19:15.761Z,27.80
2023-09-27T16:21:42.395Z,22.60
2023-09-27T16:24:09.181Z,22.50
2023-09-27T16:26:35.940Z,21.30
2023-09-27T16:29:03.361Z,22.90
2023-09-27T16:31:33.014Z,19.60
2023-09-27T16:33:59.876Z,18.00
2023-09-27T16:36:26.798Z,20.90
2023-09-27T16:38:53.849Z,27.70
2023-09-27T16:41:20.806Z,24.00
2023-09-27T16:43:47.996Z,19.20
2023-09-27T16:46:14.740Z,15.80
2023-09-27T16:48:41.562Z,13.30
2023-09-27T16:51:08.317Z,11.40
2023-09-27T16:53:35.091Z,9.40
2023-09-27T16:56:01.819Z,10.00
2023-09-27T16:58:28.845Z,8.20
2023-09-27T17:01:00.352Z,8.40
2023-09-27T17:03:27.698Z,8.50
2023-09-27T17:05:54.478Z,9.30
2023-09-27T17:08:21.259Z,8.90
2023-09-27T17:10:48.142Z,9.00
2023-09-27T17:13:14.987Z,10.90
2023-09-27T17:15:44.691Z,11.90
2023-09-27T17:18:11.552Z,13.90
2023-09-27T17:20:38.499Z,13.10
2023-09-27T17:23:05.161Z,13.60
2023-09-27T17:25:32.011Z,13.20
2023-09-27T17:27:59.889Z,11.80
2023-09-27T17:30:26.467Z,13.10
2023-09-27T17:32:53.418Z,12.00
2023-09-27T17:35:21.176Z,11.60
2023-09-27T17:37:48.005Z,11.20
2023-09-27T17:40:15.677Z,12.50
2023-09-27T17:42:44.939Z,12.00
2023-09-27T17:45:12.402Z,12.30
2023-09-27T17:47:39.378Z,11.10
2023-09-27T17:50:06.426Z,10.60
2023-09-27T17:52:35.560Z,10.60
2023-09-27T17:55:03.525Z,9.90
2023-09-27T17:57:30.361Z,9.60
2023-09-27T18:00:02.996Z,10.60
2023-09-27T18:02:32.707Z,10.30
2023-09-27T18:04:59.692Z,10.00
2023-09-27T18:07:26.810Z,10.10
2023-09-27T18:09:53.709Z,9.50
2023-09-27T18:12:20.463Z,9.80
2023-09-27T18:14:47.166Z,9.30
2023-09-27T18:17:13.958Z,9.40
2023-09-27T18:19:40.867Z,9.60
2023-09-27T18:22:07.615Z,10.10
2023-09-27T18:24:34.445Z,9.40
2023-09-27T18:27:01.151Z,10.20
2023-09-27T18:29:28.944Z,9.10
2023-09-27T18:31:55.766Z,9.20
2023-09-27T18:34:22.471Z,9.50
2023-09-27T18:36:49.413Z,9.10
2023-09-27T18:39:16.108Z,9.60
2023-09-27T18:41:43.763Z,8.00
2023-09-27T18:44:12.123Z,9.30
2023-09-27T18:49:07.217Z,8.40
2023-09-27T18:51:33.967Z,9.40
2023-09-27T18:54:00.668Z,9.20
2023-09-27T18:56:27.378Z,9.00
2023-09-27T18:58:58.984Z,9.40
2023-09-27T19:01:26.297Z,9.30
2023-09-27T19:03:53.834Z,9.30
2023-09-27T19:06:20.837Z,9.50
2023-09-27T19:08:48.437Z,9.10
2023-09-27T19:11:19.002Z,10.10
2023-09-27T19:13:45.811Z,9.90
2023-09-27T19:16:12.646Z,9.00
2023-09-27T19:18:39.341Z,8.90
2023-09-27T19:21:06.062Z,9.00
2023-09-27T19:23:32.784Z,8.50
2023-09-27T19:25:59.479Z,9.20
2023-09-27T19:28:26.383Z,8.10
2023-09-27T19:30:53.151Z,8.90
2023-09-27T19:33:19.898Z,8.70
2023-09-27T19:35:46.620Z,8.90
2023-09-27T19:38:13.764Z,9.00
2023-09-27T19:40:40.519Z,8.50
2023-09-27T19:43:07.261Z,9.60
2023-09-27T19:45:34.014Z,9.20
2023-09-27T19:48:01.313Z,9.00
2023-09-27T19:50:28.136Z,9.40
2023-09-27T19:52:55.051Z,8.90
2023-09-27T19:55:21.782Z,8.60
2023-09-27T19:57:48.526Z,8.70
2023-09-27T20:00:18.815Z,9.90
2023-09-27T20:02:46.790Z,9.10
2023-09-27T20:05:13.514Z,8.90
2023-09-27T20:07:45.889Z,9.20
2023-09-27T20:10:12.612Z,9.60
2023-09-27T20:12:39.352Z,9.00
2023-09-27T20:15:08.907Z,9.40
2023-09-27T20:17:36.174Z,9.60
2023-09-27T20:20:03.501Z,7.90
2023-09-27T20:22:30.284Z,9.00
2023-09-27T20:24:58.093Z,8.50
2023-09-27T20:27:24.916Z,9.40
2023-09-27T20:29:51.500Z,9.20
2023-09-27T20:32:18.625Z,8.80
2023-09-27T20:34:45.228Z,8.80
2023-09-27T20:37:11.989Z,8.60
2023-09-27T20:39:39.762Z,9.10
2023-09-27T20:42:06.532Z,8.80
2023-09-27T20:44:33.166Z,9.70
2023-09-27T20:46:59.753Z,8.60
2023-09-27T20:49:26.580Z,9.40
2023-09-27T20:51:53.187Z,10.20
2023-09-27T20:54:19.755Z,10.20
2023-09-27T20:56:46.507Z,10.40
2023-09-27T20:59:13.201Z,10.50
2023-09-27T21:01:41.200Z,10.20
2023-09-27T21:04:08.055Z,10.70
2023-09-27T21:06:34.689Z,13.30
2023-09-27T21:09:03.608Z,12.90
2023-09-27T21:11:30.382Z,15.40
2023-09-27T21:13:58.058Z,15.80
2023-09-27T21:16:25.203Z,16.80
2023-09-27T21:18:52.200Z,16.30
2023-09-27T21:21:19.080Z,16.30
2023-09-27T21:23:45.795Z,15.10
2023-09-27T21:26:12.605Z,12.80
2023-09-27T21:28:39.605Z,13.70
2023-09-27T21:31:06.658Z,13.50
2023-09-27T21:33:39.369Z,14.60
2023-09-27T21:36:06.369Z,13.10
2023-09-27T21:38:34.042Z,13.40
2023-09-27T21:41:00.812Z,13.10
2023-09-27T21:43:27.952Z,15.50
2023-09-27T21:45:54.770Z,15.80
2023-09-27T21:48:27.431Z,16.50
2023-09-27T21:50:54.000Z,15.30
2023-09-27T21:53:20.612Z,18.00
2023-09-27T21:55:47.288Z,15.50
2023-09-27T21:58:13.917Z,17.80
2023-09-27T22:00:40.614Z,18.70
2023-09-27T22:03:08.733Z,21.90
2023-09-27T22:05:35.537Z,19.20
2023-09-27T22:08:02.395Z,19.90
2023-09-27T22:10:34.903Z,23.20
2023-09-27T22:13:21.413Z,24.20
2023-09-27T22:15:49.547Z,29.20
2023-09-27T22:18:16.570Z,31.60
2023-09-27T22:20:47.816Z,35.20
2023-09-27T22:23:39.363Z,31.90
2023-09-27T22:26:08.742Z,27.70
2023-09-27T22:28:35.492Z,32.80
2023-09-27T22:31:02.454Z,41.10
2023-09-27T22:33:33.521Z,43.90
2023-09-27T22:36:00.472Z,40.50
2023-09-27T22:38:27.192Z,43.00
2023-09-27T22:40:54.157Z,40.40
2023-09-27T22:43:20.814Z,41.40
2023-09-27T22:45:50.473Z,42.00
2023-09-27T22:48:18.149Z,42.90
2023-09-27T22:50:46.009Z,44.40
2023-09-27T22:53:16.570Z,47.80
2023-09-27T22:55:44.272Z,46.10
2023-09-27T22:58:11.041Z,53.80
2023-09-27T23:00:41.459Z,49.40
2023-09-27T23:03:14.064Z,49.80
2023-09-27T23:05:50.484Z,63.60
2023-09-27T23:08:26.577Z,59.70
2023-09-27T23:10:57.371Z,55.00
2023-09-27T23:13:35.479Z,77.00
2023-09-27T23:16:22.575Z,78.60
2023-09-27T23:18:49.402Z,87.50
2023-09-27T23:21:25.268Z,91.50
2023-09-27T23:23:58.333Z,96.30
2023-09-27T23:26:47.306Z,89.20
2023-09-27T23:29:29.784Z,85.40
2023-09-27T23:32:22.800Z,85.80
2023-09-27T23:34:49.858Z,86.50
2023-09-27T23:37:18.831Z,88.50
2023-09-27T23:39:47.728Z,81.10
2023-09-27T23:42:24.010Z,85.60
2023-09-27T23:45:08.486Z,92.20
2023-09-27T23:47:43.601Z,80.60
2023-09-27T23:50:17.219Z,76.10
2023-09-27T23:52:48.166Z,76.10
2023-09-27T23:55:16.220Z,75.90
2023-09-27T23:57:47.226Z,85.20
